sensor_id;sensor_type;location;lat;lon;timestamp;pressure;altitude;pressure_sealevel;temperature;humidity
46682;BME280;34101;53.430;-2.224;2023-02-20T00:00:09;47799.71;;;-148.94;100.00
46682;BME280;34101;53.430;-2.224;2023-02-20T00:02:42;47612.06;;;-148.94;100.00
46682;BME280;34101;53.430;-2.224;2023-02-20T00:05:11;47099.82;;;-148.94;100.00
46682;BME280;34101;53.430;-2.224;2023-02-20T00:07:39;46823.83;;;-148.94;100.00
46682;BME280;34101;53.430;-2.224;2023-02-20T00:10:07;46743.01;;;-148.94;100.00
46682;BME280;34101;53.430;-2.224;2023-02-20T00:12:34;46693.13;;;-148.94;100.00
46682;BME280;34101;53.430;-2.224;2023-02-20T00:15:02;46624.98;;;-148.94;100.00
46682;BME280;34101;53.430;-2.224;2023-02-20T00:17:30;46710.40;;;-148.94;100.00
46682;BME280;34101;53.430;-2.224;2023-02-20T00:19:57;46480.73;;;-148.94;100.00
46682;BME280;34101;53.430;-2.224;2023-02-20T00:22:26;46175.76;;;-148.94;100.00
46682;BME280;34101;53.430;-2.224;2023-02-20T00:24:53;46240.59;;;-148.94;100.00
46682;BME280;34101;53.430;-2.224;2023-02-20T00:27:20;45997.78;;;-148.94;100.00
46682;BME280;34101;53.430;-2.224;2023-02-20T00:29:48;45882.71;;;-148.94;100.00
46682;BME280;34101;53.430;-2.224;2023-02-20T00:32:15;45824.28;;;-148.94;100.00
46682;BME280;34101;53.430;-2.224;2023-02-20T00:34:42;45651.94;;;-148.94;100.00
46682;BME280;34101;53.430;-2.224;2023-02-20T00:37:10;45428.34;;;-148.94;100.00
46682;BME280;34101;53.430;-2.224;2023-02-20T00:39:37;45596.58;;;-148.94;100.00
46682;BME280;34101;53.430;-2.224;2023-02-20T00:42:05;45841.03;;;-148.94;100.00
46682;BME280;34101;53.430;-2.224;2023-02-20T00:44:32;45893.83;;;-148.94;100.00
46682;BME280;34101;53.430;-2.224;2023-02-20T00:46:59;45615.89;;;-148.94;100.00
46682;BME280;34101;53.430;-2.224;2023-02-20T00:49:28;45509.27;;;-148.94;100.00
46682;BME280;34101;53.430;-2.224;2023-02-20T00:51:55;45288.11;;;-148.94;100.00
46682;BME280;34101;53.430;-2.224;2023-02-20T00:54:23;45052.00;;;-148.94;100.00
46682;BME280;34101;53.430;-2.224;2023-02-20T00:56:50;44877.52;;;-148.94;100.00
46682;BME280;34101;53.430;-2.224;2023-02-20T00:59:17;45014.29;;;-148.94;100.00
46682;BME280;34101;53.430;-2.224;2023-02-20T01:01:45;45129.47;;;-148.94;100.00
46682;BME280;34101;53.430;-2.224;2023-02-20T01:04:12;45236.97;;;-148.94;100.00
46682;BME280;34101;53.430;-2.224;2023-02-20T01:06:40;45644.01;;;-148.94;100.00
46682;BME280;34101;53.430;-2.224;2023-02-20T01:09:07;45506.45;;;-148.94;100.00
46682;BME280;34101;53.430;-2.224;2023-02-20T01:11:34;45641.84;;;-148.94;100.00
46682;BME280;34101;53.430;-2.224;2023-02-20T01:14:02;45846.14;;;-148.94;100.00
46682;BME280;34101;53.430;-2.224;2023-02-20T01:16:29;45848.57;;;-148.94;100.00
46682;BME280;34101;53.430;-2.224;2023-02-20T01:18:57;46219.37;;;-148.94;100.00
46682;BME280;34101;53.430;-2.224;2023-02-20T01:21:24;46597.23;;;-148.94;100.00
46682;BME280;34101;53.430;-2.224;2023-02-20T01:23:51;46422.93;;;-148.94;100.00
46682;BME280;34101;53.430;-2.224;2023-02-20T01:26:19;46362.32;;;-148.94;100.00
46682;BME280;34101;53.430;-2.224;2023-02-20T01:28:47;46456.44;;;-148.94;100.00
46682;BME280;34101;53.430;-2.224;2023-02-20T01:31:14;45875.93;;;-148.94;100.00
46682;BME280;34101;53.430;-2.224;2023-02-20T01:33:41;46138.17;;;-148.94;100.00
46682;BME280;34101;53.430;-2.224;2023-02-20T01:36:09;46064.78;;;-148.94;100.00
46682;BME280;34101;53.430;-2.224;2023-02-20T01:38:39;45869.29;;;-148.94;100.00
46682;BME280;34101;53.430;-2.224;2023-02-20T01:41:06;45768.03;;;-148.94;100.00
46682;BME280;34101;53.430;-2.224;2023-02-20T01:43:34;46242.89;;;-148.94;100.00
46682;BME280;34101;53.430;-2.224;2023-02-20T01:47:07;46586.61;;;-148.94;100.00
46682;BME280;34101;53.430;-2.224;2023-02-20T01:49:40;46621.78;;;-148.94;100.00
46682;BME280;34101;53.430;-2.224;2023-02-20T01:52:14;46720.50;;;-148.94;100.00
46682;BME280;34101;53.430;-2.224;2023-02-20T01:54:46;46467.94;;;-148.94;100.00
46682;BME280;34101;53.430;-2.224;2023-02-20T01:57:19;46412.70;;;-148.94;100.00
46682;BME280;34101;53.430;-2.224;2023-02-20T01:59:49;46226.65;;;-148.94;100.00
46682;BME280;34101;53.430;-2.224;2023-02-20T02:02:19;46009.42;;;-148.94;100.00
46682;BME280;34101;53.430;-2.224;2023-02-20T02:04:48;45973.23;;;-148.94;100.00
46682;BME280;34101;53.430;-2.224;2023-02-20T02:07:17;46148.02;;;-148.94;100.00
46682;BME280;34101;53.430;-2.224;2023-02-20T02:09:51;46205.56;;;-148.94;100.00
46682;BME280;34101;53.430;-2.224;2023-02-20T02:12:18;46830.99;;;-148.94;100.00
46682;BME280;34101;53.430;-2.224;2023-02-20T02:14:46;46784.83;;;-148.94;100.00
46682;BME280;34101;53.430;-2.224;2023-02-20T02:17:27;47020.91;;;-148.94;100.00
46682;BME280;34101;53.430;-2.224;2023-02-20T02:20:30;47080.38;;;-148.94;100.00
46682;BME280;34101;53.430;-2.224;2023-02-20T02:23:42;47290.77;;;-148.94;100.00
46682;BME280;34101;53.430;-2.224;2023-02-20T02:26:31;47096.49;;;-148.94;100.00
46682;BME280;34101;53.430;-2.224;2023-02-20T02:29:22;47397.95;;;-148.94;100.00
46682;BME280;34101;53.430;-2.224;2023-02-20T02:32:12;47554.63;;;-148.94;100.00
46682;BME280;34101;53.430;-2.224;2023-02-20T02:36:09;47592.49;;;-148.94;100.00
46682;BME280;34101;53.430;-2.224;2023-02-20T02:38:46;47603.62;;;-148.94;100.00
46682;BME280;34101;53.430;-2.224;2023-02-20T02:41:21;47611.04;;;-148.94;100.00
46682;BME280;34101;53.430;-2.224;2023-02-20T02:43:54;48022.17;;;-148.94;100.00
46682;BME280;34101;53.430;-2.224;2023-02-20T02:46:27;48037.77;;;-148.94;100.00
46682;BME280;34101;53.430;-2.224;2023-02-20T02:49:02;47720.66;;;-148.94;100.00
46682;BME280;34101;53.430;-2.224;2023-02-20T02:51:37;47585.07;;;-148.94;100.00
46682;BME280;34101;53.430;-2.224;2023-02-20T02:54:09;47557.06;;;-148.94;100.00
46682;BME280;34101;53.430;-2.224;2023-02-20T02:56:40;47675.76;;;-148.94;100.00
46682;BME280;34101;53.430;-2.224;2023-02-20T02:59:10;47782.70;;;-148.94;100.00
46682;BME280;34101;53.430;-2.224;2023-02-20T03:01:45;47366.36;;;-148.94;100.00
46682;BME280;34101;53.430;-2.224;2023-02-20T03:04:14;47409.97;;;-148.94;100.00
46682;BME280;34101;53.430;-2.224;2023-02-20T03:06:45;47668.09;;;-148.94;100.00
46682;BME280;34101;53.430;-2.224;2023-02-20T03:09:16;47703.78;;;-148.94;100.00
46682;BME280;34101;53.430;-2.224;2023-02-20T03:11:46;47639.31;;;-148.94;100.00
46682;BME280;34101;53.430;-2.224;2023-02-20T03:14:18;47622.42;;;-148.94;100.00
46682;BME280;34101;53.430;-2.224;2023-02-20T03:16:53;47567.42;;;-148.94;100.00
46682;BME280;34101;53.430;-2.224;2023-02-20T03:19:26;47639.18;;;-148.94;100.00
46682;BME280;34101;53.430;-2.224;2023-02-20T03:21:56;47663.23;;;-148.94;100.00
46682;BME280;34101;53.430;-2.224;2023-02-20T03:24:25;47677.30;;;-148.94;100.00
46682;BME280;34101;53.430;-2.224;2023-02-20T03:26:56;47677.94;;;-148.94;100.00
46682;BME280;34101;53.430;-2.224;2023-02-20T03:29:30;47736.65;;;-148.94;100.00
46682;BME280;34101;53.430;-2.224;2023-02-20T03:32:04;47905.12;;;-148.94;100.00
46682;BME280;34101;53.430;-2.224;2023-02-20T03:34:33;47647.37;;;-148.94;100.00
46682;BME280;34101;53.430;-2.224;2023-02-20T03:37:04;47539.80;;;-148.94;100.00
46682;BME280;34101;53.430;-2.224;2023-02-20T03:39:35;47589.68;;;-148.94;100.00
46682;BME280;34101;53.430;-2.224;2023-02-20T03:42:07;47450.90;;;-148.94;100.00
46682;BME280;34101;53.430;-2.224;2023-02-20T03:44:35;47522.53;;;-148.94;100.00
46682;BME280;34101;53.430;-2.224;2023-02-20T03:47:05;47569.47;;;-148.94;100.00
46682;BME280;34101;53.430;-2.224;2023-02-20T03:49:39;47281.94;;;-148.94;100.00
46682;BME280;34101;53.430;-2.224;2023-02-20T03:52:09;46936.50;;;-148.94;100.00
46682;BME280;34101;53.430;-2.224;2023-02-20T03:54:37;46889.05;;;-148.94;100.00
46682;BME280;34101;53.430;-2.224;2023-02-20T03:57:11;46789.05;;;-148.94;100.00
46682;BME280;34101;53.430;-2.224;2023-02-20T03:59:43;46622.03;;;-148.94;100.00
46682;BME280;34101;53.430;-2.224;2023-02-20T04:02:17;46779.71;;;-148.94;100.00
46682;BME280;34101;53.430;-2.224;2023-02-20T04:04:48;46896.98;;;-148.94;100.00
46682;BME280;34101;53.430;-2.224;2023-02-20T04:07:22;46399.92;;;-148.94;100.00
46682;BME280;34101;53.430;-2.224;2023-02-20T04:09:51;46185.10;;;-148.94;100.00
46682;BME280;34101;53.430;-2.224;2023-02-20T04:12:25;45798.33;;;-148.94;100.00
46682;BME280;34101;53.430;-2.224;2023-02-20T04:14:54;46154.79;;;-148.94;100.00
46682;BME280;34101;53.430;-2.224;2023-02-20T04:17:28;46062.22;;;-148.94;100.00
46682;BME280;34101;53.430;-2.224;2023-02-20T04:19:56;45910.84;;;-148.94;100.00
46682;BME280;34101;53.430;-2.224;2023-02-20T04:22:26;46024.89;;;-148.94;100.00
46682;BME280;34101;53.430;-2.224;2023-02-20T04:24:58;45709.22;;;-148.94;100.00
46682;BME280;34101;53.430;-2.224;2023-02-20T04:27:26;45992.80;;;-148.94;100.00
46682;BME280;34101;53.430;-2.224;2023-02-20T04:29:54;45966.07;;;-148.94;100.00
46682;BME280;34101;53.430;-2.224;2023-02-20T04:32:21;45885.27;;;-148.94;100.00
46682;BME280;34101;53.430;-2.224;2023-02-20T04:34:48;45810.60;;;-148.94;100.00
46682;BME280;34101;53.430;-2.224;2023-02-20T04:37:18;45607.58;;;-148.94;100.00
46682;BME280;34101;53.430;-2.224;2023-02-20T04:39:46;45687.35;;;-148.94;100.00
46682;BME280;34101;53.430;-2.224;2023-02-20T04:42:13;45589.55;;;-148.94;100.00
46682;BME280;34101;53.430;-2.224;2023-02-20T04:44:40;45681.73;;;-148.94;100.00
46682;BME280;34101;53.430;-2.224;2023-02-20T04:47:12;45744.63;;;-148.94;100.00
46682;BME280;34101;53.430;-2.224;2023-02-20T04:49:40;45122.43;;;-148.94;100.00
46682;BME280;34101;53.430;-2.224;2023-02-20T04:52:08;45055.45;;;-148.94;100.00
46682;BME280;34101;53.430;-2.224;2023-02-20T04:54:35;44858.09;;;-148.94;100.00
46682;BME280;34101;53.430;-2.224;2023-02-20T04:57:03;44501.49;;;-148.94;100.00
46682;BME280;34101;53.430;-2.224;2023-02-20T04:59:30;44953.70;;;-148.94;100.00
46682;BME280;34101;53.430;-2.224;2023-02-20T05:01:57;44682.98;;;-148.94;100.00
46682;BME280;34101;53.430;-2.224;2023-02-20T05:04:25;45166.92;;;-148.94;100.00
46682;BME280;34101;53.430;-2.224;2023-02-20T05:06:53;45267.14;;;-148.94;100.00
46682;BME280;34101;53.430;-2.224;2023-02-20T05:09:21;45319.04;;;-148.94;100.00
46682;BME280;34101;53.430;-2.224;2023-02-20T05:11:49;45254.87;;;-148.94;100.00
46682;BME280;34101;53.430;-2.224;2023-02-20T05:14:17;44844.16;;;-148.94;100.00
46682;BME280;34101;53.430;-2.224;2023-02-20T05:16:44;44542.90;;;-148.94;100.00
46682;BME280;34101;53.430;-2.224;2023-02-20T05:19:12;44506.34;;;-148.94;100.00
46682;BME280;34101;53.430;-2.224;2023-02-20T05:21:41;44509.54;;;-148.94;100.00
46682;BME280;34101;53.430;-2.224;2023-02-20T05:24:08;44347.99;;;-148.94;100.00
46682;BME280;34101;53.430;-2.224;2023-02-20T05:26:36;44242.94;;;-148.94;100.00
46682;BME280;34101;53.430;-2.224;2023-02-20T05:29:04;44219.68;;;-148.94;100.00
46682;BME280;34101;53.430;-2.224;2023-02-20T05:31:31;43849.33;;;-148.94;100.00
46682;BME280;34101;53.430;-2.224;2023-02-20T05:33:59;43861.34;;;-148.94;100.00
46682;BME280;34101;53.430;-2.224;2023-02-20T05:36:27;43617.02;;;-148.94;100.00
46682;BME280;34101;53.430;-2.224;2023-02-20T05:38:54;43192.55;;;-148.94;100.00
46682;BME280;34101;53.430;-2.224;2023-02-20T05:41:21;43385.36;;;-148.94;100.00
46682;BME280;34101;53.430;-2.224;2023-02-20T05:43:48;43568.84;;;-148.94;100.00
46682;BME280;34101;53.430;-2.224;2023-02-20T05:46:16;43611.39;;;-148.94;100.00
46682;BME280;34101;53.430;-2.224;2023-02-20T05:48:48;43280.33;;;-148.94;100.00
46682;BME280;34101;53.430;-2.224;2023-02-20T05:51:19;43214.14;;;-148.94;100.00
46682;BME280;34101;53.430;-2.224;2023-02-20T05:53:47;43189.36;;;-148.94;100.00
46682;BME280;34101;53.430;-2.224;2023-02-20T05:56:14;43145.02;;;-148.94;100.00
46682;BME280;34101;53.430;-2.224;2023-02-20T05:58:42;42904.83;;;-148.94;100.00
46682;BME280;34101;53.430;-2.224;2023-02-20T06:01:16;42831.37;;;-148.94;100.00
46682;BME280;34101;53.430;-2.224;2023-02-20T06:03:43;43103.50;;;-148.94;100.00
46682;BME280;34101;53.430;-2.224;2023-02-20T06:06:11;42876.21;;;-148.94;100.00
46682;BME280;34101;53.430;-2.224;2023-02-20T06:08:38;43295.79;;;-148.94;100.00
46682;BME280;34101;53.430;-2.224;2023-02-20T06:11:06;43168.53;;;-148.94;100.00
46682;BME280;34101;53.430;-2.224;2023-02-20T06:13:35;43605.52;;;-148.94;100.00
46682;BME280;34101;53.430;-2.224;2023-02-20T06:16:02;43172.36;;;-148.94;100.00
46682;BME280;34101;53.430;-2.224;2023-02-20T06:18:29;43298.22;;;-148.94;100.00
46682;BME280;34101;53.430;-2.224;2023-02-20T06:20:57;43363.00;;;-148.94;100.00
46682;BME280;34101;53.430;-2.224;2023-02-20T06:23:24;43158.95;;;-148.94;100.00
46682;BME280;34101;53.430;-2.224;2023-02-20T06:25:52;42834.18;;;-148.94;100.00
46682;BME280;34101;53.430;-2.224;2023-02-20T06:28:19;42890.52;;;-148.94;100.00
46682;BME280;34101;53.430;-2.224;2023-02-20T06:30:47;42567.05;;;-148.94;100.00
46682;BME280;34101;53.430;-2.224;2023-02-20T06:33:14;43046.01;;;-148.94;100.00
46682;BME280;34101;53.430;-2.224;2023-02-20T06:35:42;42966.03;;;-148.94;100.00
46682;BME280;34101;53.430;-2.224;2023-02-20T06:38:09;42923.48;;;-148.94;100.00
46682;BME280;34101;53.430;-2.224;2023-02-20T06:40:37;42837.50;;;-148.94;100.00
46682;BME280;34101;53.430;-2.224;2023-02-20T06:43:05;43048.82;;;-148.94;100.00
46682;BME280;34101;53.430;-2.224;2023-02-20T06:45:32;43178.75;;;-148.94;100.00
46682;BME280;34101;53.430;-2.224;2023-02-20T06:48:01;43169.55;;;-148.94;100.00
46682;BME280;34101;53.430;-2.224;2023-02-20T06:50:29;43121.51;;;-148.94;100.00
46682;BME280;34101;53.430;-2.224;2023-02-20T06:52:57;43048.94;;;-148.94;100.00
46682;BME280;34101;53.430;-2.224;2023-02-20T06:55:25;43399.41;;;-148.94;100.00
46682;BME280;34101;53.430;-2.224;2023-02-20T06:57:52;43069.26;;;-148.94;100.00
46682;BME280;34101;53.430;-2.224;2023-02-20T07:00:20;43243.53;;;-148.94;100.00
46682;BME280;34101;53.430;-2.224;2023-02-20T07:02:47;43236.63;;;-148.94;100.00
46682;BME280;34101;53.430;-2.224;2023-02-20T07:05:16;43148.86;;;-148.94;100.00
46682;BME280;34101;53.430;-2.224;2023-02-20T07:07:43;43228.71;;;-148.94;100.00
46682;BME280;34101;53.430;-2.224;2023-02-20T07:10:11;43500.74;;;-148.94;100.00
46682;BME280;34101;53.430;-2.224;2023-02-20T07:12:38;43353.92;;;-148.94;100.00
46682;BME280;34101;53.430;-2.224;2023-02-20T07:15:07;43471.48;;;-148.94;100.00
46682;BME280;34101;53.430;-2.224;2023-02-20T07:17:34;43647.17;;;-148.94;100.00
46682;BME280;34101;53.430;-2.224;2023-02-20T07:20:02;43771.63;;;-148.94;100.00
46682;BME280;34101;53.430;-2.224;2023-02-20T07:22:29;43654.97;;;-148.94;100.00
46682;BME280;34101;53.430;-2.224;2023-02-20T07:24:57;43570.89;;;-148.94;100.00
46682;BME280;34101;53.430;-2.224;2023-02-20T07:27:24;43523.99;;;-148.94;100.00
46682;BME280;34101;53.430;-2.224;2023-02-20T07:29:51;43721.67;;;-148.94;100.00
46682;BME280;34101;53.430;-2.224;2023-02-20T07:32:19;43478.89;;;-148.94;100.00
46682;BME280;34101;53.430;-2.224;2023-02-20T07:34:46;43363.25;;;-148.94;100.00
46682;BME280;34101;53.430;-2.224;2023-02-20T07:37:14;43095.71;;;-148.94;100.00
46682;BME280;34101;53.430;-2.224;2023-02-20T07:39:42;43459.72;;;-148.94;100.00
46682;BME280;34101;53.430;-2.224;2023-02-20T07:42:09;43109.38;;;-148.94;100.00
46682;BME280;34101;53.430;-2.224;2023-02-20T07:44:37;43083.57;;;-148.94;100.00
46682;BME280;34101;53.430;-2.224;2023-02-20T07:47:04;42908.66;;;-148.94;100.00
46682;BME280;34101;53.430;-2.224;2023-02-20T07:49:32;42770.94;;;-148.94;100.00
46682;BME280;34101;53.430;-2.224;2023-02-20T07:51:59;42808.37;;;-148.94;100.00
46682;BME280;34101;53.430;-2.224;2023-02-20T07:54:27;42775.54;;;-148.94;100.00
46682;BME280;34101;53.430;-2.224;2023-02-20T07:56:54;42614.83;;;-148.94;100.00
46682;BME280;34101;53.430;-2.224;2023-02-20T07:59:22;42678.96;;;-148.94;100.00
46682;BME280;34101;53.430;-2.224;2023-02-20T08:01:49;42657.63;;;-148.94;100.00
46682;BME280;34101;53.430;-2.224;2023-02-20T08:04:17;42784.74;;;-148.94;100.00
46682;BME280;34101;53.430;-2.224;2023-02-20T08:06:44;42632.08;;;-148.94;100.00
46682;BME280;34101;53.430;-2.224;2023-02-20T08:09:12;42324.09;;;-148.94;100.00
46682;BME280;34101;53.430;-2.224;2023-02-20T08:11:39;42090.59;;;-148.94;100.00
46682;BME280;34101;53.430;-2.224;2023-02-20T08:14:07;42355.25;;;-148.94;100.00
46682;BME280;34101;53.430;-2.224;2023-02-20T08:16:34;42384.51;;;-148.94;100.00
46682;BME280;34101;53.430;-2.224;2023-02-20T08:19:01;42240.29;;;-148.94;100.00
46682;BME280;34101;53.430;-2.224;2023-02-20T08:21:29;42253.19;;;-148.94;100.00
46682;BME280;34101;53.430;-2.224;2023-02-20T08:23:56;42220.36;;;-148.94;100.00
46682;BME280;34101;53.430;-2.224;2023-02-20T08:26:23;42448.63;;;-148.94;100.00
46682;BME280;34101;53.430;-2.224;2023-02-20T08:28:51;42394.98;;;-148.94;100.00
46682;BME280;34101;53.430;-2.224;2023-02-20T08:31:19;42029.15;;;-148.94;100.00
46682;BME280;34101;53.430;-2.224;2023-02-20T08:33:46;42501.90;;;-148.94;100.00
46682;BME280;34101;53.430;-2.224;2023-02-20T08:36:13;42632.72;;;-148.94;100.00
46682;BME280;34101;53.430;-2.224;2023-02-20T08:38:40;42494.49;;;-148.94;100.00
46682;BME280;34101;53.430;-2.224;2023-02-20T08:41:09;42590.30;;;-148.94;100.00
46682;BME280;34101;53.430;-2.224;2023-02-20T08:43:38;42306.71;;;-148.94;100.00
46682;BME280;34101;53.430;-2.224;2023-02-20T08:46:06;42352.19;;;-148.94;100.00
46682;BME280;34101;53.430;-2.224;2023-02-20T08:48:33;42203.50;;;-148.94;100.00
46682;BME280;34101;53.430;-2.224;2023-02-20T08:51:01;42160.97;;;-148.94;100.00
46682;BME280;34101;53.430;-2.224;2023-02-20T08:53:29;42316.93;;;-148.94;100.00
46682;BME280;34101;53.430;-2.224;2023-02-20T08:55:56;41948.55;;;-148.94;100.00
46682;BME280;34101;53.430;-2.224;2023-02-20T08:58:24;42638.85;;;-148.94;100.00
46682;BME280;34101;53.430;-2.224;2023-02-20T09:00:52;42455.28;;;-148.94;100.00
46682;BME280;34101;53.430;-2.224;2023-02-20T09:03:19;42022.12;;;-148.94;100.00
46682;BME280;34101;53.430;-2.224;2023-02-20T09:05:46;42050.10;;;-148.94;100.00
46682;BME280;34101;53.430;-2.224;2023-02-20T09:08:13;42110.64;;;-148.94;100.00
46682;BME280;34101;53.430;-2.224;2023-02-20T09:10:41;42100.93;;;-148.94;100.00
46682;BME280;34101;53.430;-2.224;2023-02-20T09:13:08;41856.46;;;-148.94;100.00
46682;BME280;34101;53.430;-2.224;2023-02-20T09:15:36;41665.52;;;-148.94;100.00
46682;BME280;34101;53.430;-2.224;2023-02-20T09:18:03;41842.92;;;-148.94;100.00
46682;BME280;34101;53.430;-2.224;2023-02-20T09:20:30;41914.70;;;-148.94;100.00
46682;BME280;34101;53.430;-2.224;2023-02-20T09:22:58;41721.72;;;-148.94;100.00
46682;BME280;34101;53.430;-2.224;2023-02-20T09:25:25;41863.74;;;-148.94;100.00
46682;BME280;34101;53.430;-2.224;2023-02-20T09:27:52;41547.77;;;-148.94;100.00
46682;BME280;34101;53.430;-2.224;2023-02-20T09:30:20;41808.06;;;-148.94;100.00
46682;BME280;34101;53.430;-2.224;2023-02-20T09:32:48;41870.26;;;-148.94;100.00
46682;BME280;34101;53.430;-2.224;2023-02-20T09:35:18;41770.63;;;-148.94;100.00
46682;BME280;34101;53.430;-2.224;2023-02-20T09:37:46;41834.37;;;-148.94;100.00
46682;BME280;34101;53.430;-2.224;2023-02-20T09:40:14;41672.54;;;-148.94;100.00
46682;BME280;34101;53.430;-2.224;2023-02-20T09:42:50;41682.38;;;-148.94;100.00
46682;BME280;34101;53.430;-2.224;2023-02-20T09:45:26;41527.59;;;-148.94;100.00
46682;BME280;34101;53.430;-2.224;2023-02-20T09:48:03;41763.48;;;-148.94;100.00
46682;BME280;34101;53.430;-2.224;2023-02-20T09:50:39;41414.18;;;-148.94;100.00
46682;BME280;34101;53.430;-2.224;2023-02-20T09:53:17;41259.91;;;-148.94;100.00
46682;BME280;34101;53.430;-2.224;2023-02-20T09:55:46;41258.25;;;-148.94;100.00
46682;BME280;34101;53.430;-2.224;2023-02-20T09:58:22;41633.21;;;-148.94;100.00
46682;BME280;34101;53.430;-2.224;2023-02-20T10:00:52;41263.61;;;-148.94;100.00
46682;BME280;34101;53.430;-2.224;2023-02-20T10:03:27;41572.93;;;-148.94;100.00
46682;BME280;34101;53.430;-2.224;2023-02-20T10:05:56;41069.76;;;-148.94;100.00
46682;BME280;34101;53.430;-2.224;2023-02-20T10:08:23;40647.10;;;-148.94;100.00
46682;BME280;34101;53.430;-2.224;2023-02-20T10:10:54;40232.28;;;-148.94;100.00
46682;BME280;34101;53.430;-2.224;2023-02-20T10:13:37;40164.61;;;-148.94;100.00
46682;BME280;34101;53.430;-2.224;2023-02-20T10:16:18;40533.98;;;-148.94;100.00
46682;BME280;34101;53.430;-2.224;2023-02-20T10:18:55;40701.75;;;-148.94;100.00
46682;BME280;34101;53.430;-2.224;2023-02-20T10:21:37;40997.61;;;-148.94;100.00
46682;BME280;34101;53.430;-2.224;2023-02-20T10:24:21;40880.65;;;-148.94;100.00
46682;BME280;34101;53.430;-2.224;2023-02-20T10:26:58;41198.23;;;-148.94;100.00
46682;BME280;34101;53.430;-2.224;2023-02-20T10:29:33;41029.79;;;-148.94;100.00
46682;BME280;34101;53.430;-2.224;2023-02-20T10:32:04;41324.78;;;-148.94;100.00
46682;BME280;34101;53.430;-2.224;2023-02-20T10:34:36;41319.29;;;-148.94;100.00
46682;BME280;34101;53.430;-2.224;2023-02-20T10:37:11;40854.09;;;-148.94;100.00
46682;BME280;34101;53.430;-2.224;2023-02-20T10:39:47;41107.94;;;-148.94;100.00
46682;BME280;34101;53.430;-2.224;2023-02-20T10:42:19;40670.47;;;-148.94;100.00
46682;BME280;34101;53.430;-2.224;2023-02-20T10:44:52;40399.91;;;-148.94;100.00
46682;BME280;34101;53.430;-2.224;2023-02-20T10:47:26;40265.22;;;-148.94;100.00
46682;BME280;34101;53.430;-2.224;2023-02-20T10:49:58;40099.76;;;-148.94;100.00
46682;BME280;34101;53.430;-2.224;2023-02-20T10:52:34;40270.58;;;-148.94;100.00
46682;BME280;34101;53.430;-2.224;2023-02-20T10:55:08;39884.77;;;-148.94;100.00
46682;BME280;34101;53.430;-2.224;2023-02-20T10:57:41;39279.20;;;-148.94;100.00
46682;BME280;34101;53.430;-2.224;2023-02-20T11:00:16;38909.45;;;-148.94;100.00
46682;BME280;34101;53.430;-2.224;2023-02-20T11:02:47;38889.54;;;-148.94;100.00
46682;BME280;34101;53.430;-2.224;2023-02-20T11:05:21;38450.01;;;-148.94;100.00
46682;BME280;34101;53.430;-2.224;2023-02-20T11:07:48;38225.16;;;-148.94;100.00
46682;BME280;34101;53.430;-2.224;2023-02-20T11:10:15;38427.55;;;-148.94;100.00
46682;BME280;34101;53.430;-2.224;2023-02-20T11:12:45;38037.08;;;-148.94;100.00
46682;BME280;34101;53.430;-2.224;2023-02-20T11:15:16;38100.37;;;-148.94;100.00
46682;BME280;34101;53.430;-2.224;2023-02-20T11:17:46;37812.38;;;-148.94;100.00
46682;BME280;34101;53.430;-2.224;2023-02-20T11:20:46;37819.65;;;-148.94;100.00
46682;BME280;34101;53.430;-2.224;2023-02-20T11:23:34;37512.17;;;-148.94;100.00
46682;BME280;34101;53.430;-2.224;2023-02-20T11:26:34;37404.36;;;-148.94;100.00
46682;BME280;34101;53.430;-2.224;2023-02-20T11:29:04;36642.02;;;-148.94;100.00
46682;BME280;34101;53.430;-2.224;2023-02-20T11:31:37;36253.13;;;-148.94;100.00
46682;BME280;34101;53.430;-2.224;2023-02-20T11:34:05;36349.17;;;-148.94;100.00
46682;BME280;34101;53.430;-2.224;2023-02-20T11:36:44;35905.46;;;-148.94;100.00
46682;BME280;34101;53.430;-2.224;2023-02-20T11:39:23;35994.10;;;-148.94;100.00
46682;BME280;34101;53.430;-2.224;2023-02-20T11:42:04;36195.86;;;-148.94;100.00
46682;BME280;34101;53.430;-2.224;2023-02-20T11:44:32;35615.98;;;-148.94;100.00
46682;BME280;34101;53.430;-2.224;2023-02-20T11:47:32;35462.07;;;-148.94;100.00
46682;BME280;34101;53.430;-2.224;2023-02-20T11:50:16;35484.38;;;-148.94;100.00
46682;BME280;34101;53.430;-2.224;2023-02-20T11:52:57;35604.50;;;-148.94;100.00
46682;BME280;34101;53.430;-2.224;2023-02-20T11:55:25;35245.80;;;-148.94;100.00
46682;BME280;34101;53.430;-2.224;2023-02-20T11:57:52;35519.58;;;-148.94;100.00
46682;BME280;34101;53.430;-2.224;2023-02-20T12:00:23;35798.21;;;-148.94;100.00
46682;BME280;34101;53.430;-2.224;2023-02-20T12:02:54;35952.65;;;-148.94;100.00
46682;BME280;34101;53.430;-2.224;2023-02-20T12:05:36;36040.39;;;-148.94;100.00
46682;BME280;34101;53.430;-2.224;2023-02-20T12:08:22;35910.69;;;-148.94;100.00
46682;BME280;34101;53.430;-2.224;2023-02-20T12:10:56;35671.45;;;-148.94;100.00
46682;BME280;34101;53.430;-2.224;2023-02-20T12:13:25;35199.14;;;-148.94;100.00
46682;BME280;34101;53.430;-2.224;2023-02-20T12:15:58;35400.86;;;-148.94;100.00
46682;BME280;34101;53.430;-2.224;2023-02-20T12:18:41;35812.11;;;-148.94;100.00
46682;BME280;34101;53.430;-2.224;2023-02-20T12:21:20;36091.03;;;-148.94;100.00
46682;BME280;34101;53.430;-2.224;2023-02-20T12:23:56;35964.51;;;-148.94;100.00
46682;BME280;34101;53.430;-2.224;2023-02-20T12:26:39;35612.92;;;-148.94;100.00
46682;BME280;34101;53.430;-2.224;2023-02-20T12:29:19;35310.20;;;-148.94;100.00
46682;BME280;34101;53.430;-2.224;2023-02-20T12:31:59;34878.98;;;-148.94;100.00
46682;BME280;34101;53.430;-2.224;2023-02-20T12:34:41;34176.02;;;-148.94;100.00
46682;BME280;34101;53.430;-2.224;2023-02-20T12:37:20;33581.02;;;-148.94;100.00
46682;BME280;34101;53.430;-2.224;2023-02-20T12:39:57;33488.48;;;-148.94;100.00